Upper Black Eddy, PA (18972)

8:13 PM EDT on August 27, 2015 (GMT -0400)
Center Hill Road/Nockamixon Township | | Change Station
CLOSE
Current Station
Personal Weather Station
Location: Upper Black Eddy, PA
Elevation: 607 ft
Nearby Weather Stations

Elev 607 ft 40.56 °N, 75.16 °W | Updated 2 minutes ago

Overcast
Overcast
64.6 °F
Feels Like 64.6 °F
N
0.0
Wind Variable Wind from NNW
Gusts 0.0 mph

Today
High -- | Low -- °F
--% Chance of Precip.
Yesterday
High -- | Low -- °F
Precip. -- in
6:22 AM 7:40 PM
Waxing Gibbous, 95% visible
Pressure 30.08 in
Visibility 10.0 miles
Clouds Clear
Dew Point 58 °F
Humidity 79%
Rainfall 0.00 in
Snow Depth Not available.
UV 0 out of 12
Pollen 9.30 out of 12
Air Quality Not available.
Flu Activity Not available.
METAR KDYL 272354Z AUTO 00000KT 10SM CLR 19/13 A3009 RMK AO2 SLP186 T01940128 10250 20194 51006
Pressure 30.08 in
Visibility 10.0 miles
Clouds Clear
Dew Point 58 °F
Humidity 79%
Rainfall 0.00 in
Snow Depth Not available.
UV 0 out of 12
Pollen 9.30 out of 12
Air Quality Not available.
Flu Activity Not available.
METAR KDYL 272354Z AUTO 00000KT 10SM CLR 19/13 A3009 RMK AO2 SLP186 T01940128 10250 20194 51006

10-Day Weather Forecast

×

Almanac

Astronomy

Aug. 27, 2015 Rise Set
Actual Time
Civil Twilight
Nautical Twilight
Astronomical Twilight
Moon
Length of Visible Light
Length of Day
Tomorrow will be .
, % of the Moon is Illuminated

Today's Extremes

State Highs State Lows

Community

WunderPhotos

Upload Photos

1,850,272 photos uploaded!

WunderBlogs® & News

Nearby

Air Quality

  Air Quality AQ Index Pollutant
Not available.

Snow Depth

Station Depth Elevation

Earthquake Activity

City Distance Mag. Time & Date
Minimum magnitude displayed is 2.5.

Coastal Water Temperatures

Place Temperature

Stations

Nearby Weather Stations

Station Location Temp. Windchill Dew Point Humidity Wind Precip. Elev Updated Type